Weather at Culwell Ranch Airport [CLOSED]

Public forecast

Using degrees Fahrenheit for public forecast. Weather courtesy of forecast.io.

Closest aviation weather report (METAR) to Culwell Ranch Airport

Closest report is Dallas Fort Worth International Airport, 7.2 nm (13.4 km) SSE.

2024/05/30 11:53 (retrieved 1 hour ago)

KDFW 301153Z 15007KT 10SM FEW009 BKN012 OVC250 24/22 A2996 RMK AO2 SLP136 T02390222 10250 20233 53004

Closest aviation forecast (TAF) to Culwell Ranch Airport

Closest forecast is Dallas Fort Worth International Airport, 7.2 nm (13.4 km) SSE.

2024/05/30 12:39 (retrieved 20 minutes ago)

TAF KDFW 301137Z 3012/3118 14010KT P6SM BKN010 TEMPO 3012/3015 BKN008 FM301500 14007KT P6SM VCTS BKN022CB TEMPO 3018/3021 4SM TSRA BR OVC025CB FM302200 11012KT P6SM VCSH BKN060 OVC110 FM310400 15008KT P6SM VCTS OVC015CB FM311000 13008KT 6SM -SHRA BR OVC035